< Cyclone 198103 1981 Season Cyclone 198105 >
Cyclone 198104 (DAN)
General InformationTrack Information on Google Maps || ResourceGoogle EarthGE AnimationAtom FeedGeoJSON
Detalied Best Track (Time Zone = UTC)
Year Month Day Hour Lat. Long. Pressure (hPa) Wind (kt) Class Image Chart
1980 12 14 00 -8.5 99.6 1006 0 0 -- --
1980 12 14 06 -8.4 100.3 1006 0 0 -- --
1980 12 14 12 -8.3 101.1 1005 0 0 -- --
1980 12 14 18 -8.4 101.9 1005 0 0 -- --
1980 12 15 00 -8.7 102.4 1004 0 0 -- --
1980 12 15 03 -8.9 102.5 1003 0 0 -- --
1980 12 15 06 -9.6 102.1 1002 0 0 -- --
1980 12 15 09 -10.0 101.6 1001 0 0 -- --
1980 12 15 12 -10.4 101.4 1000 0 0 -- --
1980 12 15 15 -10.5 101.6 998 0 0 -- --
1980 12 15 18 -10.5 101.9 996 0 0 -- --
1980 12 16 00 -10.2 102.3 992 0 0 -- --
1980 12 16 06 -9.8 103.0 989 0 0 -- --
1980 12 16 12 -9.6 103.7 986 0 0 -- --
1980 12 16 15 -9.7 104.0 985 0 0 -- --
1980 12 16 18 -10.0 104.2 985 0 0 -- --
1980 12 17 00 -10.8 104.5 986 0 0 -- --
1980 12 17 06 -11.7 104.7 988 0 0 -- --
1980 12 17 12 -12.2 104.9 990 0 0 -- --
1980 12 17 18 -12.9 105.1 992 0 0 -- --
1980 12 18 00 -13.5 105.4 994 0 0 -- --
< Cyclone 198103 1981 Season Cyclone 198105 >

Help